createdAt,value
2022-08-01T00:00:02.850Z,22.18
2022-08-01T00:02:29.702Z,22.15
2022-08-01T00:04:56.222Z,22.21
2022-08-01T00:07:22.785Z,22.11
2022-08-01T00:09:49.745Z,21.99
2022-08-01T00:12:16.302Z,21.91
2022-08-01T00:14:42.742Z,21.86
2022-08-01T00:17:09.180Z,21.83
2022-08-01T00:19:35.755Z,21.82
2022-08-01T00:22:02.299Z,21.85
2022-08-01T00:24:28.761Z,21.86
2022-08-01T00:26:55.223Z,21.84
2022-08-01T00:29:49.961Z,21.82
2022-08-01T00:32:08.849Z,21.89
2022-08-01T00:34:35.644Z,21.82
2022-08-01T00:37:02.408Z,21.79
2022-08-01T00:39:28.838Z,21.73
2022-08-01T00:41:59.415Z,21.68
2022-08-01T00:44:27.674Z,21.61
2022-08-01T00:46:54.123Z,21.51
2022-08-01T00:49:20.817Z,21.36
2022-08-01T00:51:47.401Z,21.27
2022-08-01T00:54:16.750Z,21.14
2022-08-01T00:56:43.895Z,21.07
2022-08-01T00:59:10.704Z,20.97
2022-08-01T01:01:39.753Z,20.85
2022-08-01T01:04:08.403Z,20.79
2022-08-01T01:06:46.977Z,20.66
2022-08-01T01:09:35.564Z,20.50
2022-08-01T01:12:09.571Z,20.40
2022-08-01T01:14:47.201Z,20.30
2022-08-01T01:17:17.833Z,20.20
2022-08-01T01:20:06.582Z,20.12
2022-08-01T01:22:59.878Z,20.04
2022-08-01T01:25:41.509Z,20.03
2022-08-01T01:28:22.125Z,20.02
2022-08-01T01:30:51.889Z,20.03
2022-08-01T01:33:20.435Z,20.01
2022-08-01T01:35:49.993Z,20.01
2022-08-01T01:38:22.744Z,20.05
2022-08-01T01:40:51.853Z,20.08
2022-08-01T01:43:19.895Z,20.08
2022-08-01T01:45:47.266Z,20.15
2022-08-01T01:48:16.284Z,20.18
2022-08-01T01:50:44.327Z,20.22
2022-08-01T01:53:15.352Z,20.24
2022-08-01T01:55:48.863Z,20.30
2022-08-01T01:58:18.359Z,20.36
2022-08-01T02:00:46.512Z,20.37
2022-08-01T02:03:13.767Z,20.44
2022-08-01T02:05:40.902Z,20.49
2022-08-01T02:08:09.121Z,20.48
2022-08-01T02:10:36.582Z,20.54
2022-08-01T02:13:05.133Z,20.59
2022-08-01T02:15:34.129Z,20.59
2022-08-01T02:18:02.104Z,20.61
2022-08-01T02:20:31.151Z,20.62
2022-08-01T02:23:01.920Z,20.65
2022-08-01T02:25:35.440Z,20.66
2022-08-01T02:28:35.808Z,20.68
2022-08-01T02:31:05.767Z,20.69
2022-08-01T02:33:38.251Z,20.71
2022-08-01T02:36:30.192Z,20.72
2022-08-01T02:38:56.573Z,20.76
2022-08-01T02:41:26.177Z,20.85
2022-08-01T02:43:53.761Z,20.86
2022-08-01T02:46:32.612Z,20.90
2022-08-01T02:49:01.972Z,20.88
2022-08-01T02:51:29.326Z,20.84
2022-08-01T02:53:56.010Z,20.84
2022-08-01T02:56:23.738Z,20.78
2022-08-01T02:58:50.567Z,20.79
2022-08-01T03:01:18.416Z,20.70
2022-08-01T03:03:46.735Z,20.73
2022-08-01T03:06:13.878Z,20.78
2022-08-01T03:08:40.629Z,20.82
2022-08-01T03:11:07.941Z,20.83
2022-08-01T03:13:34.813Z,20.81
2022-08-01T03:16:03.203Z,20.82
2022-08-01T03:18:29.968Z,20.86
2022-08-01T03:20:57.415Z,20.78
2022-08-01T03:23:37.827Z,20.77
2022-08-01T03:26:06.111Z,20.77
2022-08-01T03:28:32.864Z,20.72
2022-08-01T03:31:00.685Z,20.69
2022-08-01T03:33:27.580Z,20.67
2022-08-01T03:35:55.353Z,20.72
2022-08-01T03:38:25.129Z,20.70
2022-08-01T03:40:57.971Z,20.75
2022-08-01T03:43:33.126Z,20.76
2022-08-01T03:46:05.855Z,20.77
2022-08-01T03:48:33.479Z,20.80
2022-08-01T03:51:00.460Z,20.83
2022-08-01T03:53:30.824Z,20.86
2022-08-01T03:55:57.703Z,20.90
2022-08-01T03:58:24.333Z,20.89
2022-08-01T04:00:51.092Z,20.94
2022-08-01T04:03:17.742Z,21.00
2022-08-01T04:05:44.454Z,20.99
2022-08-01T04:08:11.076Z,21.00
2022-08-01T04:10:38.188Z,21.03
2022-08-01T04:13:05.137Z,21.02
2022-08-01T04:15:31.970Z,21.06
2022-08-01T04:17:58.581Z,21.03
2022-08-01T04:20:25.419Z,21.10
2022-08-01T04:22:52.841Z,21.12
2022-08-01T04:25:28.491Z,21.09
2022-08-01T04:27:55.519Z,21.13
2022-08-01T04:30:27.066Z,21.23
2022-08-01T04:32:55.557Z,21.31
2022-08-01T04:36:02.857Z,21.44
2022-08-01T04:38:10.230Z,21.57
2022-08-01T04:40:37.196Z,21.70
2022-08-01T04:43:04.062Z,21.74
2022-08-01T04:45:30.919Z,21.73
2022-08-01T04:47:58.479Z,21.64
2022-08-01T04:50:25.426Z,21.47
2022-08-01T04:52:52.580Z,21.47
2022-08-01T04:55:19.194Z,21.54
2022-08-01T04:57:47.677Z,21.60
2022-08-01T05:00:14.647Z,21.69
2022-08-01T05:02:41.211Z,21.71
2022-08-01T05:05:08.272Z,21.93
2022-08-01T05:07:43.052Z,21.95
2022-08-01T05:10:12.450Z,21.99
2022-08-01T05:12:39.045Z,21.96
2022-08-01T05:15:11.810Z,21.77
2022-08-01T05:17:43.309Z,21.74
2022-08-01T05:20:11.379Z,21.80
2022-08-01T05:22:38.191Z,21.84
2022-08-01T05:25:05.987Z,21.79
2022-08-01T05:27:33.918Z,21.76
2022-08-01T05:30:00.403Z,21.81
2022-08-01T05:32:26.957Z,22.00
2022-08-01T05:34:53.683Z,22.13
2022-08-01T05:37:20.143Z,22.37
2022-08-01T05:39:46.570Z,22.61
2022-08-01T05:42:13.382Z,22.62
2022-08-01T05:44:39.872Z,22.76
2022-08-01T05:47:06.506Z,22.87
2022-08-01T05:49:33.115Z,22.87
2022-08-01T05:52:01.722Z,22.88
2022-08-01T05:54:28.843Z,23.06
2022-08-01T05:57:00.452Z,23.07
2022-08-01T05:59:27.454Z,22.85
2022-08-01T06:01:54.518Z,23.13
2022-08-01T06:04:21.090Z,23.04
2022-08-01T06:06:47.738Z,22.98
2022-08-01T06:09:14.328Z,22.81
2022-08-01T06:11:40.905Z,22.70
2022-08-01T06:14:07.340Z,22.66
2022-08-01T06:16:33.896Z,22.47
2022-08-01T06:19:01.124Z,22.60
2022-08-01T06:21:27.750Z,22.45
2022-08-01T06:23:54.181Z,22.45
2022-08-01T06:26:21.052Z,22.26
2022-08-01T06:28:47.825Z,22.33
2022-08-01T06:31:15.842Z,22.29
2022-08-01T06:33:42.348Z,22.44
2022-08-01T06:36:08.908Z,22.37
2022-08-01T06:38:35.467Z,22.34
2022-08-01T06:41:02.059Z,22.26
2022-08-01T06:43:29.024Z,21.92
2022-08-01T06:45:55.468Z,22.12
2022-08-01T06:48:22.032Z,22.08
2022-08-01T06:50:48.543Z,21.83
2022-08-01T06:53:15.042Z,21.66
2022-08-01T06:55:41.822Z,21.45
2022-08-01T06:58:08.765Z,21.17
2022-08-01T07:00:35.252Z,20.93
2022-08-01T07:03:01.721Z,20.70
2022-08-01T07:05:28.388Z,20.61
2022-08-01T07:07:55.102Z,20.47
2022-08-01T07:10:21.679Z,20.53
2022-08-01T07:12:48.187Z,20.53
2022-08-01T07:15:14.893Z,20.57
2022-08-01T07:17:42.916Z,20.51
2022-08-01T07:20:11.790Z,20.40
2022-08-01T07:22:41.126Z,20.37
2022-08-01T07:25:09.076Z,20.46
2022-08-01T07:27:35.832Z,20.58
2022-08-01T07:30:02.871Z,20.85
2022-08-01T07:32:30.341Z,20.92
2022-08-01T07:34:57.250Z,20.87
2022-08-01T07:37:47.686Z,20.75
2022-08-01T07:40:11.891Z,20.72
2022-08-01T07:42:38.996Z,20.72
2022-08-01T07:45:05.830Z,20.83
2022-08-01T07:47:32.370Z,21.13
2022-08-01T07:50:02.896Z,21.57
2022-08-01T07:52:29.653Z,21.96
2022-08-01T07:54:57.249Z,22.58
2022-08-01T07:57:24.594Z,23.00
2022-08-01T07:59:51.437Z,23.23
2022-08-01T08:02:18.222Z,23.39
2022-08-01T08:04:48.881Z,22.96
2022-08-01T08:07:15.862Z,22.98
2022-08-01T08:09:42.393Z,23.00
2022-08-01T08:12:09.362Z,23.07
2022-08-01T08:14:36.918Z,23.43
2022-08-01T08:17:03.683Z,23.48
2022-08-01T08:19:38.528Z,23.77
2022-08-01T08:22:06.893Z,23.83
2022-08-01T08:24:33.788Z,23.62
2022-08-01T08:27:02.023Z,24.40
2022-08-01T08:29:33.504Z,24.70
2022-08-01T08:32:01.263Z,24.34
2022-08-01T08:34:28.775Z,24.79
2022-08-01T08:36:56.382Z,25.04
2022-08-01T08:39:23.630Z,24.90
2022-08-01T08:41:50.433Z,24.73
2022-08-01T08:44:17.771Z,24.81
2022-08-01T08:46:47.101Z,25.65
2022-08-01T08:49:17.364Z,26.38
2022-08-01T08:51:44.845Z,25.78
2022-08-01T08:54:13.639Z,25.69
2022-08-01T08:56:40.546Z,24.93
2022-08-01T08:59:07.147Z,25.22
2022-08-01T09:01:34.471Z,26.69
2022-08-01T09:04:01.000Z,27.26
2022-08-01T09:06:27.738Z,29.22
2022-08-01T09:08:54.827Z,29.93
2022-08-01T09:11:23.050Z,30.10
2022-08-01T09:14:09.235Z,31.71
2022-08-01T09:16:37.655Z,32.25
2022-08-01T09:19:16.290Z,31.08
2022-08-01T09:22:01.587Z,29.66
2022-08-01T09:24:30.437Z,30.32
2022-08-01T09:26:59.226Z,32.48
2022-08-01T09:29:38.201Z,33.27
2022-08-01T09:32:08.399Z,33.04
2022-08-01T09:34:40.782Z,32.52
2022-08-01T09:37:08.201Z,30.62
2022-08-01T09:39:38.488Z,31.11
2022-08-01T09:42:29.087Z,31.28
2022-08-01T09:44:56.399Z,30.42
2022-08-01T09:47:24.040Z,30.35
2022-08-01T09:49:57.333Z,29.90
2022-08-01T09:52:28.960Z,29.53
2022-08-01T09:55:01.464Z,31.65
2022-08-01T09:57:29.157Z,33.47
2022-08-01T10:00:01.340Z,33.61
2022-08-01T10:02:42.679Z,33.63
2022-08-01T10:05:18.824Z,33.63
2022-08-01T10:08:07.839Z,33.14
2022-08-01T10:10:34.722Z,31.02
2022-08-01T10:13:05.136Z,29.38
2022-08-01T10:15:36.863Z,28.82
2022-08-01T10:18:26.019Z,28.36
2022-08-01T10:20:53.078Z,30.40
2022-08-01T10:23:24.408Z,32.31
2022-08-01T10:26:08.388Z,33.34
2022-08-01T10:28:39.399Z,33.80
2022-08-01T10:31:12.339Z,32.50
2022-08-01T10:33:50.629Z,33.14
2022-08-01T10:36:23.986Z,32.80
2022-08-01T10:38:52.383Z,33.48
2022-08-01T10:41:19.756Z,32.27
2022-08-01T10:43:47.069Z,32.42
2022-08-01T10:46:14.055Z,30.92
2022-08-01T10:49:04.506Z,30.03
2022-08-01T10:51:52.849Z,29.31
2022-08-01T10:54:18.075Z,28.83
2022-08-01T10:56:48.590Z,28.87
2022-08-01T10:59:49.282Z,29.01
2022-08-01T11:02:08.915Z,29.24
2022-08-01T11:04:41.666Z,29.62
2022-08-01T11:07:25.596Z,29.43
2022-08-01T11:10:14.886Z,29.84
2022-08-01T11:12:44.066Z,29.60
2022-08-01T11:15:10.659Z,29.03
2022-08-01T11:17:42.165Z,28.27
2022-08-01T11:20:15.069Z,28.62
2022-08-01T11:23:00.247Z,29.23
2022-08-01T11:26:04.951Z,29.80
2022-08-01T11:28:28.474Z,31.42
2022-08-01T11:31:07.969Z,31.68
2022-08-01T11:33:46.724Z,32.40
2022-08-01T11:36:14.599Z,32.07
2022-08-01T11:38:48.798Z,30.89
2022-08-01T11:41:38.618Z,29.64
2022-08-01T11:44:12.938Z,28.56
2022-08-01T11:46:56.463Z,28.14
2022-08-01T11:49:24.675Z,27.38
2022-08-01T11:52:06.093Z,27.17
2022-08-01T11:54:36.246Z,27.19
2022-08-01T11:57:06.200Z,27.21
2022-08-01T12:00:02.772Z,28.16
2022-08-01T12:02:35.278Z,28.64
2022-08-01T12:05:14.120Z,28.90
2022-08-01T12:07:44.992Z,28.84
2022-08-01T12:10:16.769Z,28.98
2022-08-01T12:12:51.457Z,28.94
2022-08-01T12:15:20.034Z,29.08
2022-08-01T12:17:58.382Z,28.90
2022-08-01T12:20:30.956Z,28.18
2022-08-01T12:23:00.481Z,28.11
2022-08-01T12:25:27.328Z,28.41
2022-08-01T12:27:56.583Z,29.49
2022-08-01T12:30:25.186Z,30.61
2022-08-01T12:32:53.764Z,31.53
2022-08-01T12:35:24.035Z,31.94
2022-08-01T12:37:52.897Z,32.79
2022-08-01T12:40:28.067Z,33.03
2022-08-01T12:43:06.120Z,32.85
2022-08-01T12:45:38.498Z,31.86
2022-08-01T12:48:09.459Z,30.34
2022-08-01T12:50:38.496Z,30.83
2022-08-01T12:53:07.199Z,31.29
2022-08-01T12:55:34.805Z,32.52
2022-08-01T12:58:16.050Z,31.92
2022-08-01T13:00:45.044Z,31.85
2022-08-01T13:03:16.204Z,31.88
2022-08-01T13:05:47.890Z,32.26
2022-08-01T13:08:16.925Z,31.32
2022-08-01T13:10:44.196Z,31.86
2022-08-01T13:13:11.386Z,32.45
2022-08-01T13:16:05.443Z,32.75
2022-08-01T13:18:33.507Z,31.78
2022-08-01T13:21:22.366Z,30.78
2022-08-01T13:24:28.233Z,30.78
2022-08-01T13:27:03.445Z,31.17
2022-08-01T13:29:32.429Z,30.95
2022-08-01T13:32:00.045Z,31.28
2022-08-01T13:34:34.148Z,31.78
2022-08-01T13:37:02.561Z,31.80
2022-08-01T13:39:41.220Z,31.58
2022-08-01T13:42:11.766Z,31.95
2022-08-01T13:44:46.359Z,31.53
2022-08-01T13:47:15.479Z,30.81
2022-08-01T13:49:42.740Z,30.99
2022-08-01T13:52:09.688Z,31.40
2022-08-01T13:54:37.044Z,31.68
2022-08-01T13:57:03.852Z,31.73
2022-08-01T13:59:30.296Z,31.49
2022-08-01T14:01:56.822Z,31.85
2022-08-01T14:04:23.283Z,31.87
2022-08-01T14:06:49.922Z,31.34
2022-08-01T14:09:24.341Z,31.44
2022-08-01T14:11:51.649Z,31.46
2022-08-01T14:14:18.383Z,31.35
2022-08-01T14:16:47.997Z,31.71
2022-08-01T14:19:16.963Z,31.32
2022-08-01T14:21:43.449Z,30.86
2022-08-01T14:24:10.638Z,30.88
2022-08-01T14:26:37.339Z,31.46
2022-08-01T14:29:04.006Z,31.79
2022-08-01T14:31:34.122Z,31.38
2022-08-01T14:34:01.112Z,31.15
2022-08-01T14:36:30.110Z,30.22
2022-08-01T14:39:00.000Z,30.35
2022-08-01T14:41:27.860Z,30.27
2022-08-01T14:43:54.846Z,30.29
2022-08-01T14:46:21.351Z,30.01
2022-08-01T14:48:47.999Z,30.07
2022-08-01T14:51:14.504Z,29.54
2022-08-01T14:53:46.663Z,29.47
2022-08-01T14:56:15.536Z,29.66
2022-08-01T14:58:42.062Z,29.70
2022-08-01T15:01:08.535Z,29.89
2022-08-01T15:03:35.037Z,30.05
2022-08-01T15:06:01.543Z,29.96
2022-08-01T15:08:28.264Z,29.42
2022-08-01T15:10:54.741Z,29.46
2022-08-01T15:13:21.272Z,29.37
2022-08-01T15:15:48.857Z,29.07
2022-08-01T15:18:16.255Z,29.08
2022-08-01T15:20:42.998Z,28.99
2022-08-01T15:23:10.391Z,29.02
2022-08-01T15:25:41.334Z,28.87
2022-08-01T15:28:10.291Z,29.14
2022-08-01T15:30:36.810Z,29.24
2022-08-01T15:33:03.313Z,29.12
2022-08-01T15:35:29.858Z,29.17
2022-08-01T15:37:56.691Z,28.80
2022-08-01T15:40:23.237Z,28.69
2022-08-01T15:42:49.918Z,28.38
2022-08-01T15:45:44.414Z,28.56
2022-08-01T15:48:06.064Z,28.44
2022-08-01T15:50:32.788Z,28.44
2022-08-01T15:52:59.214Z,28.08
2022-08-01T15:55:25.645Z,28.13
2022-08-01T15:57:52.122Z,27.95
2022-08-01T16:00:18.640Z,27.98
2022-08-01T16:02:45.503Z,28.02
2022-08-01T16:05:11.973Z,28.12
2022-08-01T16:07:59.209Z,28.23
2022-08-01T16:10:25.466Z,28.44
2022-08-01T16:12:52.018Z,28.81
2022-08-01T16:15:18.637Z,29.05
2022-08-01T16:17:45.048Z,29.18
2022-08-01T16:20:11.570Z,29.08
2022-08-01T16:22:38.067Z,28.82
2022-08-01T16:25:05.950Z,28.54
2022-08-01T16:27:32.502Z,28.63
2022-08-01T16:29:59.014Z,28.83
2022-08-01T16:32:26.828Z,29.19
2022-08-01T16:34:56.574Z,29.24
2022-08-01T16:37:23.019Z,29.20
2022-08-01T16:39:49.464Z,28.90
2022-08-01T16:42:15.911Z,28.46
2022-08-01T16:44:42.911Z,28.24
2022-08-01T16:47:09.749Z,28.03
2022-08-01T16:49:36.784Z,28.02
2022-08-01T16:52:03.748Z,27.97
2022-08-01T16:54:30.685Z,27.66
2022-08-01T16:56:58.013Z,27.63
2022-08-01T16:59:35.163Z,27.59
2022-08-01T17:02:08.681Z,27.29
2022-08-01T17:04:35.280Z,27.10
2022-08-01T17:07:01.842Z,27.21
2022-08-01T17:09:28.393Z,27.38
2022-08-01T17:11:54.822Z,27.47
2022-08-01T17:14:21.332Z,27.36
2022-08-01T17:16:48.260Z,27.30
2022-08-01T17:19:15.057Z,27.41
2022-08-01T17:21:42.207Z,27.33
2022-08-01T17:24:09.202Z,27.40
2022-08-01T17:26:35.708Z,27.46
2022-08-01T17:29:02.131Z,27.44
2022-08-01T17:31:28.785Z,27.22
2022-08-01T17:33:55.505Z,27.16
2022-08-01T17:36:22.374Z,26.93
2022-08-01T17:38:49.007Z,26.79
2022-08-01T17:41:15.527Z,26.61
2022-08-01T17:43:42.126Z,26.60
2022-08-01T17:46:08.712Z,26.64
2022-08-01T17:48:35.484Z,26.45
2022-08-01T17:51:02.045Z,26.25
2022-08-01T17:53:29.416Z,26.28
2022-08-01T17:55:58.587Z,26.14
2022-08-01T17:58:50.040Z,25.88
2022-08-01T18:01:13.199Z,25.80
2022-08-01T18:03:41.326Z,25.58
2022-08-01T18:06:09.494Z,25.53
2022-08-01T18:08:36.173Z,25.34
2022-08-01T18:11:03.176Z,25.25
2022-08-01T18:13:29.999Z,25.07
2022-08-01T18:15:57.151Z,24.91
2022-08-01T18:18:32.708Z,24.79
2022-08-01T18:21:01.879Z,24.67
2022-08-01T18:23:28.585Z,24.67
2022-08-01T18:25:55.048Z,24.52
2022-08-01T18:28:32.339Z,24.47
2022-08-01T18:31:01.947Z,24.35
2022-08-01T18:33:28.528Z,24.29
2022-08-01T18:35:57.726Z,24.29
2022-08-01T18:38:32.841Z,24.10
2022-08-01T18:41:01.066Z,23.93
2022-08-01T18:43:27.852Z,23.86
2022-08-01T18:45:57.078Z,23.82
2022-08-01T18:48:23.975Z,23.67
2022-08-01T18:50:50.568Z,23.71
2022-08-01T18:53:18.774Z,23.54
2022-08-01T18:55:45.375Z,23.42
2022-08-01T18:58:12.065Z,23.30
2022-08-01T19:00:39.842Z,23.16
2022-08-01T19:03:07.809Z,23.12
2022-08-01T19:05:34.979Z,23.09
2022-08-01T19:08:06.194Z,22.97
2022-08-01T19:10:36.062Z,22.87
2022-08-01T19:13:03.010Z,22.84
2022-08-01T19:15:29.624Z,22.73
2022-08-01T19:17:56.069Z,22.64
2022-08-01T19:20:22.635Z,22.54
2022-08-01T19:22:49.102Z,22.48
2022-08-01T19:25:15.783Z,22.40
2022-08-01T19:27:47.542Z,22.34
2022-08-01T19:30:15.406Z,22.27
2022-08-01T19:32:46.266Z,22.17
2022-08-01T19:35:14.867Z,22.15
2022-08-01T19:37:45.834Z,22.13
2022-08-01T19:40:27.505Z,22.02
2022-08-01T19:42:58.084Z,21.92
2022-08-01T19:45:28.580Z,21.90
2022-08-01T19:47:56.409Z,21.78
2022-08-01T19:50:26.449Z,21.78
2022-08-01T19:52:55.362Z,21.74
2022-08-01T19:55:23.629Z,21.68
2022-08-01T19:58:17.378Z,21.68
2022-08-01T20:00:40.352Z,21.61
2022-08-01T20:03:09.247Z,21.59
2022-08-01T20:05:37.178Z,21.61
2022-08-01T20:08:06.514Z,21.59
2022-08-01T20:10:33.344Z,21.47
2022-08-01T20:13:00.422Z,21.47
2022-08-01T20:15:26.858Z,21.36
2022-08-01T20:17:57.382Z,21.32
2022-08-01T20:20:23.913Z,21.27
2022-08-01T20:22:53.715Z,21.23
2022-08-01T20:25:20.708Z,21.12
2022-08-01T20:27:47.604Z,21.02
2022-08-01T20:30:14.472Z,20.93
2022-08-01T20:32:41.272Z,20.95
2022-08-01T20:35:08.422Z,20.88
2022-08-01T20:38:06.757Z,20.81
2022-08-01T20:40:26.721Z,20.71
2022-08-01T20:42:53.827Z,20.65
2022-08-01T20:45:21.923Z,20.55
2022-08-01T20:47:49.867Z,20.47
2022-08-01T20:50:54.360Z,20.41
2022-08-01T20:53:24.825Z,20.35
2022-08-01T20:56:17.050Z,20.28
2022-08-01T20:58:46.145Z,20.20
2022-08-01T21:01:20.959Z,20.15
2022-08-01T21:04:13.687Z,20.08
2022-08-01T21:06:48.310Z,20.05
2022-08-01T21:09:19.509Z,20.08
2022-08-01T21:11:50.678Z,20.06
2022-08-01T21:14:21.659Z,19.98
2022-08-01T21:17:00.055Z,19.92
2022-08-01T21:19:27.858Z,19.91
2022-08-01T21:22:12.006Z,19.94
2022-08-01T21:24:57.964Z,19.85
2022-08-01T21:27:33.431Z,19.81
2022-08-01T21:30:02.277Z,19.76
2022-08-01T21:32:32.379Z,19.66
2022-08-01T21:34:58.900Z,19.63
2022-08-01T21:37:25.716Z,19.59
2022-08-01T21:39:52.231Z,19.52
2022-08-01T21:42:19.408Z,19.45
2022-08-01T21:44:47.010Z,19.39
2022-08-01T21:47:14.207Z,19.33
2022-08-01T21:49:41.462Z,19.25
2022-08-01T21:52:22.642Z,19.18
2022-08-01T21:54:58.602Z,19.09
2022-08-01T21:57:57.194Z,19.05
2022-08-01T22:00:25.593Z,18.98
2022-08-01T22:03:11.590Z,18.97
2022-08-01T22:05:49.496Z,18.91
2022-08-01T22:08:29.756Z,18.88
2022-08-01T22:11:03.889Z,18.83
2022-08-01T22:13:30.713Z,18.73
2022-08-01T22:15:58.141Z,18.69
2022-08-01T22:18:28.342Z,18.70
2022-08-01T22:20:55.919Z,18.75
2022-08-01T22:23:23.704Z,18.70
2022-08-01T22:25:55.135Z,18.77
2022-08-01T22:28:22.354Z,18.89
2022-08-01T22:30:51.225Z,18.90
2022-08-01T22:33:18.150Z,18.96
2022-08-01T22:35:49.987Z,18.98
2022-08-01T22:38:17.970Z,18.93
2022-08-01T22:40:58.767Z,18.97
2022-08-01T22:43:35.758Z,18.91
2022-08-01T22:46:28.611Z,18.78
2022-08-01T22:49:09.311Z,18.69
2022-08-01T22:51:55.039Z,18.64
2022-08-01T22:54:26.975Z,18.57
2022-08-01T22:56:55.987Z,18.53
2022-08-01T22:59:49.608Z,18.49
2022-08-01T23:02:17.049Z,18.42
2022-08-01T23:04:47.354Z,18.35
2022-08-01T23:07:18.885Z,18.29
2022-08-01T23:09:54.180Z,18.23
2022-08-01T23:12:24.275Z,18.14
2022-08-01T23:14:54.500Z,18.09
2022-08-01T23:17:26.948Z,18.06
2022-08-01T23:19:58.203Z,18.01
2022-08-01T23:22:28.986Z,18.01
2022-08-01T23:25:01.408Z,18.03
2022-08-01T23:27:55.765Z,18.02
2022-08-01T23:30:24.245Z,17.99
2022-08-01T23:32:51.013Z,17.99
2022-08-01T23:35:19.727Z,17.92
2022-08-01T23:37:46.963Z,17.84
2022-08-01T23:40:13.546Z,17.74
2022-08-01T23:42:40.773Z,17.70
2022-08-01T23:45:08.757Z,17.69
2022-08-01T23:47:36.129Z,17.65
2022-08-01T23:50:03.972Z,17.60
2022-08-01T23:52:32.355Z,17.59
2022-08-01T23:55:03.465Z,17.54
2022-08-01T23:57:41.622Z,17.53
